createdAt,value
2019-03-30T00:01:40.670Z,22.87
2019-03-30T00:04:13.396Z,21.60
2019-03-30T00:06:44.921Z,22.73
2019-03-30T00:09:18.238Z,23.40
2019-03-30T00:11:49.815Z,21.73
2019-03-30T00:14:21.292Z,23.03
2019-03-30T00:16:52.595Z,23.87
2019-03-30T00:19:34.687Z,23.33
2019-03-30T00:21:57.330Z,24.57
2019-03-30T00:24:28.341Z,24.33
2019-03-30T00:26:59.611Z,24.97
2019-03-30T00:29:31.073Z,22.90
2019-03-30T00:32:02.595Z,22.90
2019-03-30T00:34:33.934Z,23.07
2019-03-30T00:37:05.083Z,23.97
2019-03-30T00:39:36.524Z,24.27
2019-03-30T00:42:07.938Z,23.23
2019-03-30T00:44:38.899Z,23.70
2019-03-30T00:47:09.946Z,25.33
2019-03-30T00:49:49.084Z,21.87
2019-03-30T00:52:13.864Z,22.40
2019-03-30T00:54:44.949Z,22.50
2019-03-30T00:57:15.903Z,25.03
2019-03-30T00:59:47.622Z,23.63
2019-03-30T01:02:18.630Z,24.40
2019-03-30T01:04:49.803Z,20.73
2019-03-30T01:07:20.750Z,22.23
2019-03-30T01:09:53.030Z,23.63
2019-03-30T01:12:24.094Z,23.33
2019-03-30T01:14:55.268Z,20.70
2019-03-30T01:17:26.521Z,21.53
2019-03-30T01:20:03.058Z,22.27
2019-03-30T01:22:30.271Z,21.00
2019-03-30T01:25:01.214Z,22.73
2019-03-30T01:27:32.290Z,21.13
2019-03-30T01:30:03.871Z,21.80
2019-03-30T01:32:35.111Z,21.70
2019-03-30T01:35:07.868Z,21.67
2019-03-30T01:37:39.619Z,22.40
2019-03-30T01:40:10.960Z,20.77
2019-03-30T01:42:42.587Z,19.83
2019-03-30T01:45:14.465Z,21.07
2019-03-30T01:47:45.561Z,21.57
2019-03-30T01:50:18.050Z,19.97
2019-03-30T01:52:49.386Z,20.97
2019-03-30T01:55:20.383Z,20.30
2019-03-30T01:57:51.811Z,20.53
2019-03-30T02:00:23.463Z,19.60
2019-03-30T02:02:54.493Z,21.50
2019-03-30T02:05:25.841Z,20.90
2019-03-30T02:07:56.961Z,22.67
2019-03-30T02:10:45.096Z,19.17
2019-03-30T02:13:16.774Z,20.30
2019-03-30T02:15:48.797Z,21.00
2019-03-30T02:18:19.829Z,19.43
2019-03-30T02:20:51.338Z,21.40
2019-03-30T02:23:23.186Z,21.17
2019-03-30T02:25:54.163Z,20.97
2019-03-30T02:28:26.983Z,19.13
2019-03-30T02:30:58.174Z,20.00
2019-03-30T02:33:29.268Z,19.87
2019-03-30T02:36:00.317Z,20.07
2019-03-30T02:38:31.316Z,18.73
2019-03-30T02:41:02.643Z,19.53
2019-03-30T02:43:33.945Z,20.00
2019-03-30T02:46:05.200Z,18.07
2019-03-30T02:48:36.227Z,19.30
2019-03-30T02:51:07.391Z,19.70
2019-03-30T02:53:38.937Z,19.87
2019-03-30T02:56:09.955Z,19.27
2019-03-30T02:58:40.981Z,19.20
2019-03-30T03:01:13.160Z,20.93
2019-03-30T03:03:44.196Z,20.57
2019-03-30T03:06:15.275Z,18.87
2019-03-30T03:08:46.306Z,18.97
2019-03-30T03:11:17.639Z,18.83
2019-03-30T03:13:48.775Z,20.87
2019-03-30T03:16:20.192Z,19.47
2019-03-30T03:18:51.223Z,19.80
2019-03-30T03:21:22.739Z,19.73
2019-03-30T03:23:53.652Z,19.27
2019-03-30T03:26:24.642Z,19.27
2019-03-30T03:28:55.718Z,19.67
2019-03-30T03:31:26.793Z,19.23
2019-03-30T03:33:57.857Z,20.03
2019-03-30T03:36:29.017Z,19.73
2019-03-30T03:39:00.540Z,19.10
2019-03-30T03:41:32.275Z,20.00
2019-03-30T03:44:03.419Z,19.73
2019-03-30T03:46:34.463Z,21.53
2019-03-30T03:49:05.405Z,22.00
2019-03-30T03:51:37.047Z,20.13
2019-03-30T03:54:08.028Z,20.37
2019-03-30T03:56:43.260Z,20.23
2019-03-30T03:59:15.675Z,20.07
2019-03-30T04:01:48.641Z,21.70
2019-03-30T04:04:22.034Z,20.47
2019-03-30T04:06:54.839Z,18.23
2019-03-30T04:09:28.853Z,18.30
2019-03-30T04:12:00.621Z,18.63
2019-03-30T04:14:33.545Z,19.77
2019-03-30T04:17:05.331Z,21.20
2019-03-30T04:19:36.277Z,20.10
2019-03-30T04:22:07.498Z,19.23
2019-03-30T04:24:38.649Z,19.33
2019-03-30T04:27:09.627Z,19.73
2019-03-30T04:29:40.853Z,20.27
2019-03-30T04:32:12.031Z,19.83
2019-03-30T04:34:43.145Z,19.20
2019-03-30T04:37:14.386Z,20.37
2019-03-30T04:39:46.449Z,20.57
2019-03-30T04:42:17.643Z,20.17
2019-03-30T04:44:48.654Z,19.93
2019-03-30T04:47:19.654Z,20.77
2019-03-30T04:49:50.697Z,19.40
2019-03-30T04:52:21.951Z,19.93
2019-03-30T04:54:52.879Z,17.90
2019-03-30T04:57:23.960Z,18.67
2019-03-30T04:59:54.959Z,21.27
2019-03-30T05:02:26.365Z,19.07
2019-03-30T05:04:57.759Z,19.57
2019-03-30T05:07:29.251Z,20.30
2019-03-30T05:10:00.667Z,20.80
2019-03-30T05:12:31.879Z,18.97
2019-03-30T05:15:03.051Z,17.83
2019-03-30T05:17:46.879Z,18.73
2019-03-30T05:20:07.699Z,17.83
2019-03-30T05:22:38.773Z,18.23
2019-03-30T05:25:09.946Z,17.37
2019-03-30T05:27:41.468Z,17.40
2019-03-30T05:30:13.088Z,18.07
2019-03-30T05:32:44.235Z,20.07
2019-03-30T05:35:15.369Z,18.93
2019-03-30T05:37:46.370Z,17.93
2019-03-30T05:40:20.261Z,19.17
2019-03-30T05:42:56.388Z,18.23
2019-03-30T05:45:27.299Z,17.87
2019-03-30T05:47:58.495Z,18.07
2019-03-30T05:50:29.595Z,20.13
2019-03-30T05:53:00.779Z,25.93
2019-03-30T05:55:31.956Z,18.93
2019-03-30T05:58:03.121Z,18.03
2019-03-30T06:00:34.047Z,17.43
2019-03-30T06:03:05.023Z,19.07
2019-03-30T06:05:35.993Z,17.40
2019-03-30T06:08:06.977Z,16.47
2019-03-30T06:10:38.987Z,17.00
2019-03-30T06:13:10.149Z,17.37
2019-03-30T06:15:41.231Z,18.33
2019-03-30T06:18:12.157Z,16.87
2019-03-30T06:20:43.129Z,19.93
2019-03-30T06:23:14.277Z,18.20
2019-03-30T06:25:45.328Z,17.03
2019-03-30T06:28:16.477Z,17.43
2019-03-30T06:30:47.497Z,17.60
2019-03-30T06:33:18.501Z,17.57
2019-03-30T06:35:49.665Z,18.20
2019-03-30T06:38:20.807Z,16.67
2019-03-30T06:40:51.849Z,18.27
2019-03-30T06:43:23.639Z,16.87
2019-03-30T06:45:54.915Z,16.53
2019-03-30T06:48:26.119Z,126.13
2019-03-30T06:50:57.360Z,19.03
2019-03-30T06:53:28.915Z,18.77
2019-03-30T06:56:01.032Z,18.73
2019-03-30T06:58:32.491Z,15.83
2019-03-30T07:01:03.670Z,18.53
2019-03-30T07:03:34.679Z,16.90
2019-03-30T07:06:06.332Z,17.33
2019-03-30T07:08:38.333Z,15.63
2019-03-30T07:11:21.066Z,16.30
2019-03-30T07:13:44.445Z,16.13
2019-03-30T07:16:15.528Z,18.00
2019-03-30T07:18:47.095Z,16.17
2019-03-30T07:21:18.122Z,17.73
2019-03-30T07:23:49.124Z,16.13
2019-03-30T07:26:20.462Z,16.47
2019-03-30T07:28:51.462Z,17.63
2019-03-30T07:31:22.673Z,14.47
2019-03-30T07:33:53.686Z,16.47
2019-03-30T07:36:26.483Z,15.97
2019-03-30T07:38:57.641Z,15.83
2019-03-30T07:41:29.226Z,16.97
2019-03-30T07:44:00.328Z,15.60
2019-03-30T07:46:31.786Z,18.83
2019-03-30T07:49:03.064Z,14.67
2019-03-30T07:51:34.407Z,16.10
2019-03-30T07:54:05.485Z,15.47
2019-03-30T07:56:38.201Z,16.77
2019-03-30T07:59:12.080Z,17.57
2019-03-30T08:01:44.442Z,18.63
2019-03-30T08:04:15.889Z,18.13
2019-03-30T08:06:46.944Z,17.80
2019-03-30T08:09:18.052Z,18.63
2019-03-30T08:11:49.375Z,18.53
2019-03-30T08:14:20.579Z,19.07
2019-03-30T08:16:51.919Z,17.13
2019-03-30T08:19:23.371Z,18.33
2019-03-30T08:21:54.405Z,19.53
2019-03-30T08:24:27.542Z,19.33
2019-03-30T08:27:03.718Z,19.50
2019-03-30T08:29:41.153Z,22.17
2019-03-30T08:32:12.720Z,21.23
2019-03-30T08:34:43.837Z,21.40
2019-03-30T08:37:14.922Z,23.10
2019-03-30T08:39:46.749Z,25.10
2019-03-30T08:42:17.956Z,23.90
2019-03-30T08:44:49.227Z,26.20
2019-03-30T08:47:20.421Z,23.40
2019-03-30T08:49:51.595Z,26.63
2019-03-30T08:52:24.248Z,26.60
2019-03-30T08:54:55.593Z,27.33
2019-03-30T08:57:26.849Z,28.40
2019-03-30T08:59:58.271Z,26.73
2019-03-30T09:02:29.521Z,25.73
2019-03-30T09:05:00.623Z,28.53
2019-03-30T09:10:20.383Z,28.70
2019-03-30T09:12:51.607Z,29.23
2019-03-30T09:15:22.853Z,29.43
2019-03-30T09:17:54.107Z,27.73
2019-03-30T09:20:25.185Z,28.37
2019-03-30T09:22:56.435Z,24.77
2019-03-30T09:25:28.149Z,25.70
2019-03-30T09:27:59.623Z,27.53
2019-03-30T09:30:31.229Z,27.53
2019-03-30T09:33:02.667Z,25.33
2019-03-30T09:35:33.978Z,26.20
2019-03-30T09:38:05.059Z,26.43
2019-03-30T09:40:36.580Z,23.77
2019-03-30T09:43:08.197Z,23.67
2019-03-30T09:45:39.955Z,21.93
2019-03-30T09:48:11.474Z,22.03
2019-03-30T09:50:42.700Z,21.20
2019-03-30T09:53:13.746Z,22.30
2019-03-30T09:55:44.998Z,23.90
2019-03-30T09:58:16.543Z,21.40
2019-03-30T10:00:47.946Z,19.20
2019-03-30T10:03:19.138Z,19.83
2019-03-30T10:05:50.572Z,18.07
2019-03-30T10:08:22.133Z,16.83
2019-03-30T10:10:53.584Z,17.53
2019-03-30T10:13:24.751Z,16.57
2019-03-30T10:15:56.144Z,17.30
2019-03-30T10:18:27.153Z,18.33
2019-03-30T10:20:58.249Z,18.10
2019-03-30T10:23:29.655Z,19.10
2019-03-30T10:26:00.705Z,18.00
2019-03-30T10:28:31.828Z,15.47
2019-03-30T10:31:02.879Z,18.40
2019-03-30T10:33:34.097Z,17.07
2019-03-30T10:36:05.325Z,18.27
2019-03-30T10:38:36.697Z,19.53
2019-03-30T10:41:08.525Z,17.60
2019-03-30T10:43:39.773Z,16.25
2019-03-30T10:46:11.089Z,18.70
2019-03-30T10:48:42.285Z,20.65
2019-03-30T10:51:13.411Z,20.90
2019-03-30T10:53:44.651Z,16.07
2019-03-30T10:56:16.002Z,20.25
2019-03-30T10:58:47.336Z,16.90
2019-03-30T11:01:18.801Z,18.50
2019-03-30T11:03:50.124Z,16.50
2019-03-30T11:06:21.268Z,21.05
2019-03-30T11:08:52.324Z,22.50
2019-03-30T11:11:23.550Z,20.62
2019-03-30T11:13:54.968Z,17.75
2019-03-30T11:16:26.600Z,18.73
2019-03-30T11:18:59.143Z,20.30
2019-03-30T11:21:30.214Z,19.05
2019-03-30T11:24:01.707Z,18.00
2019-03-30T11:26:32.805Z,18.57
2019-03-30T11:29:04.147Z,17.95
2019-03-30T11:31:35.425Z,19.00
2019-03-30T11:34:07.160Z,18.75
2019-03-30T11:36:38.169Z,18.75
2019-03-30T11:39:09.670Z,18.77
2019-03-30T11:41:40.944Z,19.17
2019-03-30T11:44:12.204Z,18.40
2019-03-30T11:46:44.906Z,20.30
2019-03-30T11:49:15.962Z,21.23
2019-03-30T11:51:48.745Z,20.82
2019-03-30T11:54:19.970Z,23.18
2019-03-30T11:56:51.622Z,21.35
2019-03-30T11:59:22.859Z,20.12
2019-03-30T12:01:54.177Z,22.22
2019-03-30T12:04:25.254Z,19.10
2019-03-30T12:06:56.384Z,19.25
2019-03-30T12:09:27.640Z,17.90
2019-03-30T12:11:59.069Z,18.05
2019-03-30T12:14:30.564Z,18.55
2019-03-30T12:17:01.765Z,19.40
2019-03-30T12:19:33.016Z,24.00
2019-03-30T12:22:04.146Z,20.05
2019-03-30T12:24:36.945Z,19.17
2019-03-30T12:27:07.908Z,21.95
2019-03-30T12:29:39.972Z,18.57
2019-03-30T12:32:11.284Z,21.97
2019-03-30T12:34:42.490Z,18.77
2019-03-30T12:37:13.404Z,18.98
2019-03-30T12:39:44.376Z,19.57
2019-03-30T12:42:15.472Z,20.02
2019-03-30T12:44:46.594Z,18.17
2019-03-30T12:47:17.590Z,20.20
2019-03-30T12:49:49.937Z,22.20
2019-03-30T12:52:21.038Z,19.45
2019-03-30T12:54:52.072Z,20.45
2019-03-30T12:57:23.158Z,23.52
2019-03-30T12:59:54.235Z,20.57
2019-03-30T13:02:28.347Z,20.35
2019-03-30T13:04:59.290Z,24.92
2019-03-30T13:07:30.334Z,25.60
2019-03-30T13:10:01.375Z,20.45
2019-03-30T13:12:32.470Z,22.17
2019-03-30T13:15:04.782Z,22.37
2019-03-30T13:17:35.917Z,21.73
2019-03-30T13:20:07.424Z,22.55
2019-03-30T13:22:38.352Z,26.73
2019-03-30T13:25:10.024Z,20.37
2019-03-30T13:27:40.988Z,19.73
2019-03-30T13:30:13.356Z,23.27
2019-03-30T13:32:44.590Z,22.90
2019-03-30T13:35:15.654Z,22.43
2019-03-30T13:37:46.636Z,24.10
2019-03-30T13:40:17.735Z,22.27
2019-03-30T13:42:49.016Z,25.50
2019-03-30T13:45:20.290Z,24.07
2019-03-30T13:47:52.930Z,26.50
2019-03-30T13:50:24.419Z,24.80
2019-03-30T13:52:57.296Z,25.57
2019-03-30T13:55:28.338Z,25.83
2019-03-30T13:57:59.440Z,24.37
2019-03-30T14:00:32.787Z,23.57
2019-03-30T14:03:04.096Z,27.83
2019-03-30T14:05:35.244Z,26.43
2019-03-30T14:08:06.352Z,27.10
2019-03-30T14:10:39.177Z,29.17
2019-03-30T14:13:10.374Z,27.13
2019-03-30T14:15:41.803Z,25.80
2019-03-30T14:18:12.880Z,33.87
2019-03-30T14:20:43.997Z,26.60
2019-03-30T14:23:15.149Z,27.47
2019-03-30T14:25:46.339Z,26.17
2019-03-30T14:28:17.624Z,27.60
2019-03-30T14:30:48.578Z,28.40
2019-03-30T14:33:19.601Z,28.43
2019-03-30T14:35:50.825Z,24.20
2019-03-30T14:38:21.905Z,25.63
2019-03-30T14:40:52.941Z,25.03
2019-03-30T14:43:23.939Z,27.87
2019-03-30T14:45:56.314Z,24.53
2019-03-30T14:48:27.294Z,26.13
2019-03-30T14:50:59.606Z,25.33
2019-03-30T14:53:31.021Z,26.87
2019-03-30T14:56:02.362Z,23.67
2019-03-30T14:58:33.601Z,25.10
2019-03-30T15:01:05.354Z,28.80
2019-03-30T15:03:36.306Z,29.43
2019-03-30T15:06:08.954Z,31.57
2019-03-30T15:08:40.039Z,30.03
2019-03-30T15:11:11.318Z,29.47
2019-03-30T15:13:42.266Z,30.17
2019-03-30T15:16:13.468Z,31.53
2019-03-30T15:18:44.556Z,31.70
2019-03-30T15:21:16.018Z,34.87
2019-03-30T15:23:47.122Z,33.00
2019-03-30T15:26:18.147Z,36.80
2019-03-30T15:28:49.361Z,33.57
2019-03-30T15:31:20.499Z,35.27
2019-03-30T15:33:53.342Z,39.63
2019-03-30T15:36:24.366Z,37.60
2019-03-30T15:38:55.651Z,40.37
2019-03-30T15:41:26.619Z,39.67
2019-03-30T15:43:57.667Z,36.93
2019-03-30T15:46:28.911Z,40.50
2019-03-30T15:48:59.918Z,37.57
2019-03-30T15:51:31.037Z,36.70
2019-03-30T15:54:02.553Z,37.07
2019-03-30T15:56:33.548Z,41.53
2019-03-30T15:59:05.954Z,40.03
2019-03-30T16:01:37.372Z,39.67
2019-03-30T16:04:08.417Z,38.70
2019-03-30T16:06:39.540Z,37.10
2019-03-30T16:09:11.414Z,36.20
2019-03-30T16:11:42.398Z,41.90
2019-03-30T16:14:14.555Z,37.03
2019-03-30T16:16:45.625Z,37.40
2019-03-30T16:19:16.626Z,37.07
2019-03-30T16:21:49.705Z,36.87
2019-03-30T16:24:20.487Z,37.50
2019-03-30T16:26:51.700Z,37.73
2019-03-30T16:29:22.807Z,38.90
2019-03-30T16:31:54.067Z,39.97
2019-03-30T16:34:25.362Z,39.30
2019-03-30T16:36:56.554Z,38.93
2019-03-30T16:39:27.848Z,37.67
2019-03-30T16:41:59.919Z,39.50
2019-03-30T16:44:30.921Z,38.00
2019-03-30T16:47:02.108Z,38.83
2019-03-30T16:49:33.409Z,37.37
2019-03-30T16:52:05.453Z,37.23
2019-03-30T16:54:37.122Z,38.97
2019-03-30T16:57:08.718Z,39.50
2019-03-30T16:59:40.056Z,35.53
2019-03-30T17:02:11.264Z,38.93
2019-03-30T17:04:42.750Z,37.60
2019-03-30T17:07:14.244Z,40.37
2019-03-30T17:09:46.748Z,38.47
2019-03-30T17:12:18.065Z,103.67
2019-03-30T17:14:49.379Z,60.43
2019-03-30T17:17:20.517Z,44.50
2019-03-30T17:19:51.496Z,44.60
2019-03-30T17:22:22.544Z,49.87
2019-03-30T17:24:53.721Z,40.23
2019-03-30T17:27:26.007Z,39.10
2019-03-30T17:29:57.150Z,39.33
2019-03-30T17:32:28.317Z,43.53
2019-03-30T17:34:59.993Z,38.27
2019-03-30T17:37:31.319Z,40.53
2019-03-30T17:40:02.647Z,38.50
2019-03-30T17:42:33.633Z,40.80
2019-03-30T17:45:05.151Z,39.57
2019-03-30T17:47:36.300Z,40.27
2019-03-30T17:50:08.250Z,42.47
2019-03-30T17:52:39.905Z,38.33
2019-03-30T17:55:11.607Z,39.50
2019-03-30T17:57:43.110Z,44.10
2019-03-30T18:00:16.854Z,54.43
2019-03-30T18:02:49.258Z,42.53
2019-03-30T18:05:20.491Z,38.93
2019-03-30T18:07:51.616Z,41.37
2019-03-30T18:10:22.802Z,44.23
2019-03-30T18:12:54.252Z,43.97
2019-03-30T18:15:27.431Z,44.67
2019-03-30T18:17:58.992Z,45.30
2019-03-30T18:20:30.450Z,40.13
2019-03-30T18:23:02.058Z,44.30
2019-03-30T18:25:33.932Z,41.00
2019-03-30T18:28:07.117Z,54.10
2019-03-30T18:30:40.447Z,49.63
2019-03-30T18:33:11.964Z,48.90
2019-03-30T18:35:44.527Z,45.13
2019-03-30T18:38:15.598Z,46.67
2019-03-30T18:40:48.392Z,51.50
2019-03-30T18:43:21.166Z,48.20
2019-03-30T18:45:52.734Z,47.67
2019-03-30T18:48:24.210Z,49.27
2019-03-30T18:50:55.843Z,46.67
2019-03-30T18:53:26.892Z,50.13
2019-03-30T18:55:58.292Z,47.03
2019-03-30T18:58:40.966Z,50.50
2019-03-30T19:01:02.356Z,58.37
2019-03-30T19:03:33.439Z,54.23
2019-03-30T19:06:05.866Z,47.60
2019-03-30T19:08:36.901Z,52.33
2019-03-30T19:11:08.105Z,50.80
2019-03-30T19:13:39.750Z,51.07
2019-03-30T19:16:11.011Z,50.37
2019-03-30T19:18:42.471Z,51.23
2019-03-30T19:21:13.849Z,50.23
2019-03-30T19:23:46.211Z,48.73
2019-03-30T19:26:17.191Z,50.43
2019-03-30T19:28:56.299Z,56.70
2019-03-30T19:31:21.370Z,55.67
2019-03-30T19:33:52.485Z,54.00
2019-03-30T19:36:25.613Z,53.50
2019-03-30T19:38:56.681Z,50.50
2019-03-30T19:41:27.839Z,56.23
2019-03-30T19:43:59.108Z,57.37
2019-03-30T19:46:30.439Z,54.07
2019-03-30T19:49:01.662Z,55.67
2019-03-30T19:51:33.098Z,54.13
2019-03-30T19:54:04.484Z,55.60
2019-03-30T19:56:35.899Z,58.23
2019-03-30T19:59:10.842Z,60.90
2019-03-30T20:01:39.969Z,70.50
2019-03-30T20:04:11.242Z,58.00
2019-03-30T20:06:42.339Z,59.20
2019-03-30T20:09:13.835Z,58.20
2019-03-30T20:11:45.695Z,64.93
2019-03-30T20:14:17.122Z,66.57
2019-03-30T20:16:48.175Z,54.00
2019-03-30T20:19:19.441Z,57.10
2019-03-30T20:21:50.975Z,53.00
2019-03-30T20:24:22.067Z,63.13
2019-03-30T20:26:53.331Z,55.50
2019-03-30T20:29:25.937Z,57.47
2019-03-30T20:31:57.822Z,59.03
2019-03-30T20:34:29.027Z,55.57
2019-03-30T20:37:00.748Z,55.77
2019-03-30T20:39:32.231Z,56.83
2019-03-30T20:42:03.687Z,57.07
2019-03-30T20:44:35.127Z,54.83
2019-03-30T20:47:06.280Z,64.83
2019-03-30T20:49:37.352Z,57.50
2019-03-30T20:52:08.395Z,51.87
2019-03-30T20:54:40.629Z,53.77
2019-03-30T20:57:12.771Z,101.83
2019-03-30T20:59:43.767Z,56.37
2019-03-30T21:02:14.953Z,59.50
2019-03-30T21:04:46.068Z,61.57
2019-03-30T21:07:17.148Z,55.20
2019-03-30T21:09:48.491Z,59.87
2019-03-30T21:12:19.730Z,56.23
2019-03-30T21:14:50.815Z,58.83
2019-03-30T21:17:22.055Z,56.80
2019-03-30T21:19:53.609Z,69.13
2019-03-30T21:22:25.135Z,53.33
2019-03-30T21:24:56.463Z,57.37
2019-03-30T21:27:27.910Z,64.43
2019-03-30T21:29:59.613Z,55.93
2019-03-30T21:32:30.902Z,64.37
2019-03-30T21:35:02.423Z,58.27
2019-03-30T21:37:37.283Z,53.27
2019-03-30T21:40:08.954Z,55.30
2019-03-30T21:42:40.169Z,60.53
2019-03-30T21:45:11.986Z,60.90
2019-03-30T21:47:44.201Z,61.03
2019-03-30T21:50:15.431Z,66.47
2019-03-30T21:52:46.848Z,56.70
2019-03-30T21:55:18.015Z,58.30
2019-03-30T21:57:49.132Z,62.97
2019-03-30T22:00:34.823Z,60.97
2019-03-30T22:03:06.275Z,66.87
2019-03-30T22:05:38.031Z,70.27
2019-03-30T22:08:09.651Z,65.50
2019-03-30T22:10:41.065Z,68.73
2019-03-30T22:13:12.061Z,62.37
2019-03-30T22:15:43.279Z,74.17
2019-03-30T22:18:14.531Z,74.40
2019-03-30T22:20:47.207Z,80.17
2019-03-30T22:23:18.488Z,71.00
2019-03-30T22:25:49.491Z,70.20
2019-03-30T22:28:21.559Z,78.90
2019-03-30T22:30:53.691Z,70.90
2019-03-30T22:33:25.063Z,70.53
2019-03-30T22:35:56.429Z,85.77
2019-03-30T22:38:27.868Z,70.70
2019-03-30T22:40:59.231Z,69.67
2019-03-30T22:43:30.245Z,70.93
2019-03-30T22:46:01.633Z,81.50
2019-03-30T22:48:39.963Z,73.23
2019-03-30T22:51:11.101Z,69.60
2019-03-30T22:53:42.139Z,69.03
2019-03-30T22:56:13.109Z,70.73
2019-03-30T22:58:44.369Z,65.47
2019-03-30T23:01:18.174Z,69.60
2019-03-30T23:03:50.771Z,69.50
2019-03-30T23:06:21.809Z,65.00
2019-03-30T23:08:55.091Z,65.30
2019-03-30T23:11:27.562Z,64.33
2019-03-30T23:13:58.577Z,62.73
2019-03-30T23:16:29.593Z,61.50
2019-03-30T23:19:01.266Z,61.33
2019-03-30T23:21:32.243Z,63.60
2019-03-30T23:24:03.283Z,62.17
2019-03-30T23:26:34.509Z,60.47
2019-03-30T23:29:05.621Z,57.83
2019-03-30T23:31:37.070Z,61.93
2019-03-30T23:34:08.071Z,61.33
2019-03-30T23:36:39.161Z,57.93
2019-03-30T23:39:13.221Z,53.37
2019-03-30T23:41:44.465Z,55.00
2019-03-30T23:44:15.724Z,58.47
2019-03-30T23:46:47.235Z,56.20
2019-03-30T23:49:18.302Z,54.80
2019-03-30T23:51:49.310Z,53.17
2019-03-30T23:54:20.572Z,50.83
2019-03-30T23:56:51.708Z,52.30
2019-03-30T23:59:25.009Z,52.63
